sensor_id;sensor_type;location;lat;lon;timestamp;P1;durP1;ratioP1;P2;durP2;ratioP2
27580;SDS011;63557;52.302;7.964;2023-04-15T00:03:06;18.63;;;12.10;;
27580;SDS011;63557;52.302;7.964;2023-04-15T00:08:07;17.98;;;12.13;;
27580;SDS011;63557;52.302;7.964;2023-04-15T00:13:07;17.70;;;12.53;;
27580;SDS011;63557;52.302;7.964;2023-04-15T00:18:08;15.13;;;11.20;;
27580;SDS011;63557;52.302;7.964;2023-04-15T00:23:08;20.33;;;11.83;;
27580;SDS011;63557;52.302;7.964;2023-04-15T00:28:09;15.52;;;11.15;;
27580;SDS011;63557;52.302;7.964;2023-04-15T00:33:09;14.30;;;11.00;;
27580;SDS011;63557;52.302;7.964;2023-04-15T00:38:09;16.70;;;11.57;;
27580;SDS011;63557;52.302;7.964;2023-04-15T00:43:10;20.20;;;11.30;;
27580;SDS011;63557;52.302;7.964;2023-04-15T00:48:11;18.45;;;12.30;;
27580;SDS011;63557;52.302;7.964;2023-04-15T00:53:12;16.02;;;11.65;;
27580;SDS011;63557;52.302;7.964;2023-04-15T00:58:13;15.83;;;11.17;;
27580;SDS011;63557;52.302;7.964;2023-04-15T01:03:15;19.45;;;10.90;;
27580;SDS011;63557;52.302;7.964;2023-04-15T01:08:15;18.70;;;10.93;;
27580;SDS011;63557;52.302;7.964;2023-04-15T01:13:15;21.20;;;11.57;;
27580;SDS011;63557;52.302;7.964;2023-04-15T01:18:16;16.10;;;11.38;;
27580;SDS011;63557;52.302;7.964;2023-04-15T01:23:17;15.48;;;10.38;;
27580;SDS011;63557;52.302;7.964;2023-04-15T01:28:18;15.43;;;11.93;;
27580;SDS011;63557;52.302;7.964;2023-04-15T01:33:19;21.35;;;13.48;;
27580;SDS011;63557;52.302;7.964;2023-04-15T01:38:20;20.98;;;12.85;;
27580;SDS011;63557;52.302;7.964;2023-04-15T01:43:20;19.20;;;14.45;;
27580;SDS011;63557;52.302;7.964;2023-04-15T01:48:21;21.90;;;14.57;;
27580;SDS011;63557;52.302;7.964;2023-04-15T01:53:22;23.30;;;15.07;;
27580;SDS011;63557;52.302;7.964;2023-04-15T01:58:22;24.95;;;17.15;;
27580;SDS011;63557;52.302;7.964;2023-04-15T02:03:23;27.17;;;17.20;;
27580;SDS011;63557;52.302;7.964;2023-04-15T02:08:26;23.45;;;15.88;;
27580;SDS011;63557;52.302;7.964;2023-04-15T02:13:26;23.60;;;15.68;;
27580;SDS011;63557;52.302;7.964;2023-04-15T02:18:26;25.30;;;14.95;;
27580;SDS011;63557;52.302;7.964;2023-04-15T02:23:27;22.15;;;15.73;;
27580;SDS011;63557;52.302;7.964;2023-04-15T02:28:27;29.07;;;17.37;;
27580;SDS011;63557;52.302;7.964;2023-04-15T02:33:28;23.50;;;16.08;;
27580;SDS011;63557;52.302;7.964;2023-04-15T02:38:28;24.75;;;16.88;;
27580;SDS011;63557;52.302;7.964;2023-04-15T02:43:30;25.23;;;17.23;;
27580;SDS011;63557;52.302;7.964;2023-04-15T02:48:30;28.75;;;17.42;;
27580;SDS011;63557;52.302;7.964;2023-04-15T02:53:31;31.27;;;20.33;;
27580;SDS011;63557;52.302;7.964;2023-04-15T02:58:31;31.40;;;19.65;;
27580;SDS011;63557;52.302;7.964;2023-04-15T03:03:31;28.23;;;19.35;;
27580;SDS011;63557;52.302;7.964;2023-04-15T03:08:32;36.00;;;20.40;;
27580;SDS011;63557;52.302;7.964;2023-04-15T03:13:32;36.00;;;20.70;;
27580;SDS011;63557;52.302;7.964;2023-04-15T03:23:38;34.63;;;20.73;;
27580;SDS011;63557;52.302;7.964;2023-04-15T03:28:39;34.42;;;21.20;;
27580;SDS011;63557;52.302;7.964;2023-04-15T03:33:39;34.50;;;21.98;;
27580;SDS011;63557;52.302;7.964;2023-04-15T03:38:39;35.50;;;20.92;;
27580;SDS011;63557;52.302;7.964;2023-04-15T03:43:40;42.30;;;24.30;;
27580;SDS011;63557;52.302;7.964;2023-04-15T03:48:40;45.10;;;25.67;;
27580;SDS011;63557;52.302;7.964;2023-04-15T03:53:41;46.25;;;26.10;;
27580;SDS011;63557;52.302;7.964;2023-04-15T03:58:41;47.05;;;27.73;;
27580;SDS011;63557;52.302;7.964;2023-04-15T04:03:41;43.13;;;27.00;;
27580;SDS011;63557;52.302;7.964;2023-04-15T04:08:42;42.67;;;26.80;;
27580;SDS011;63557;52.302;7.964;2023-04-15T04:13:42;43.88;;;26.83;;
27580;SDS011;63557;52.302;7.964;2023-04-15T04:18:43;45.58;;;27.00;;
27580;SDS011;63557;52.302;7.964;2023-04-15T04:23:43;56.37;;;30.37;;
27580;SDS011;63557;52.302;7.964;2023-04-15T04:28:43;47.42;;;29.05;;
27580;SDS011;63557;52.302;7.964;2023-04-15T04:33:44;43.30;;;28.60;;
27580;SDS011;63557;52.302;7.964;2023-04-15T04:38:44;42.77;;;27.40;;
27580;SDS011;63557;52.302;7.964;2023-04-15T04:43:45;49.75;;;29.42;;
27580;SDS011;63557;52.302;7.964;2023-04-15T04:48:45;50.22;;;29.92;;
27580;SDS011;63557;52.302;7.964;2023-04-15T04:53:45;50.78;;;30.73;;
27580;SDS011;63557;52.302;7.964;2023-04-15T04:58:46;61.13;;;32.70;;
27580;SDS011;63557;52.302;7.964;2023-04-15T05:03:46;52.70;;;31.40;;
27580;SDS011;63557;52.302;7.964;2023-04-15T05:08:47;52.50;;;31.55;;
27580;SDS011;63557;52.302;7.964;2023-04-15T05:13:47;56.15;;;32.38;;
27580;SDS011;63557;52.302;7.964;2023-04-15T05:18:47;55.10;;;32.33;;
27580;SDS011;63557;52.302;7.964;2023-04-15T05:23:48;49.63;;;31.47;;
27580;SDS011;63557;52.302;7.964;2023-04-15T05:28:48;49.47;;;29.23;;
27580;SDS011;63557;52.302;7.964;2023-04-15T05:33:49;54.47;;;31.60;;
27580;SDS011;63557;52.302;7.964;2023-04-15T05:38:49;53.72;;;30.75;;
27580;SDS011;63557;52.302;7.964;2023-04-15T05:43:50;46.73;;;29.03;;
27580;SDS011;63557;52.302;7.964;2023-04-15T05:48:50;52.78;;;31.40;;
27580;SDS011;63557;52.302;7.964;2023-04-15T05:53:51;45.95;;;29.10;;
27580;SDS011;63557;52.302;7.964;2023-04-15T05:58:51;44.28;;;27.77;;
27580;SDS011;63557;52.302;7.964;2023-04-15T06:03:51;50.30;;;31.65;;
27580;SDS011;63557;52.302;7.964;2023-04-15T06:08:52;52.07;;;30.03;;
27580;SDS011;63557;52.302;7.964;2023-04-15T06:13:52;51.92;;;30.40;;
27580;SDS011;63557;52.302;7.964;2023-04-15T06:18:53;50.20;;;31.17;;
27580;SDS011;63557;52.302;7.964;2023-04-15T06:23:53;49.90;;;29.87;;
27580;SDS011;63557;52.302;7.964;2023-04-15T06:28:53;45.78;;;28.98;;
27580;SDS011;63557;52.302;7.964;2023-04-15T06:33:54;41.47;;;26.30;;
27580;SDS011;63557;52.302;7.964;2023-04-15T06:38:55;44.95;;;27.02;;
27580;SDS011;63557;52.302;7.964;2023-04-15T06:43:56;42.80;;;27.35;;
27580;SDS011;63557;52.302;7.964;2023-04-15T06:48:56;44.10;;;27.35;;
27580;SDS011;63557;52.302;7.964;2023-04-15T06:53:56;42.27;;;26.43;;
27580;SDS011;63557;52.302;7.964;2023-04-15T06:58:57;37.55;;;24.88;;
27580;SDS011;63557;52.302;7.964;2023-04-15T07:03:57;40.77;;;25.33;;
27580;SDS011;63557;52.302;7.964;2023-04-15T07:08:58;35.87;;;23.67;;
27580;SDS011;63557;52.302;7.964;2023-04-15T07:13:58;38.45;;;24.35;;
27580;SDS011;63557;52.302;7.964;2023-04-15T07:18:59;36.80;;;21.88;;
27580;SDS011;63557;52.302;7.964;2023-04-15T07:23:59;35.30;;;22.05;;
27580;SDS011;63557;52.302;7.964;2023-04-15T07:29:00;34.35;;;21.60;;
27580;SDS011;63557;52.302;7.964;2023-04-15T07:34:01;36.78;;;22.13;;
27580;SDS011;63557;52.302;7.964;2023-04-15T07:39:01;33.45;;;21.00;;
27580;SDS011;63557;52.302;7.964;2023-04-15T07:44:03;38.63;;;21.70;;
27580;SDS011;63557;52.302;7.964;2023-04-15T07:49:04;39.83;;;22.20;;
27580;SDS011;63557;52.302;7.964;2023-04-15T07:54:04;38.08;;;22.70;;
27580;SDS011;63557;52.302;7.964;2023-04-15T07:59:05;42.67;;;25.13;;
27580;SDS011;63557;52.302;7.964;2023-04-15T08:04:05;41.70;;;23.58;;
27580;SDS011;63557;52.302;7.964;2023-04-15T08:09:06;43.05;;;24.52;;
27580;SDS011;63557;52.302;7.964;2023-04-15T08:14:07;42.63;;;23.55;;
27580;SDS011;63557;52.302;7.964;2023-04-15T08:19:07;38.75;;;22.83;;
27580;SDS011;63557;52.302;7.964;2023-04-15T08:24:08;36.17;;;22.33;;
27580;SDS011;63557;52.302;7.964;2023-04-15T08:29:08;36.75;;;23.13;;
27580;SDS011;63557;52.302;7.964;2023-04-15T08:34:10;40.30;;;23.73;;
27580;SDS011;63557;52.302;7.964;2023-04-15T08:39:10;33.85;;;20.63;;
27580;SDS011;63557;52.302;7.964;2023-04-15T08:44:11;35.47;;;21.02;;
27580;SDS011;63557;52.302;7.964;2023-04-15T08:49:11;34.35;;;22.23;;
27580;SDS011;63557;52.302;7.964;2023-04-15T08:54:12;28.08;;;17.17;;
27580;SDS011;63557;52.302;7.964;2023-04-15T08:59:13;21.92;;;15.15;;
27580;SDS011;63557;52.302;7.964;2023-04-15T09:04:14;27.20;;;17.23;;
27580;SDS011;63557;52.302;7.964;2023-04-15T09:09:15;26.95;;;15.85;;
27580;SDS011;63557;52.302;7.964;2023-04-15T09:14:15;24.70;;;15.57;;
27580;SDS011;63557;52.302;7.964;2023-04-15T09:19:20;25.15;;;15.82;;
27580;SDS011;63557;52.302;7.964;2023-04-15T09:24:22;20.55;;;14.00;;
27580;SDS011;63557;52.302;7.964;2023-04-15T09:29:25;20.55;;;13.77;;
27580;SDS011;63557;52.302;7.964;2023-04-15T09:34:35;21.58;;;13.95;;
27580;SDS011;63557;52.302;7.964;2023-04-15T09:39:45;18.00;;;12.25;;
27580;SDS011;63557;52.302;7.964;2023-04-15T09:44:46;15.85;;;11.57;;
27580;SDS011;63557;52.302;7.964;2023-04-15T09:49:56;15.90;;;12.37;;
27580;SDS011;63557;52.302;7.964;2023-04-15T09:54:57;17.77;;;11.65;;
27580;SDS011;63557;52.302;7.964;2023-04-15T09:59:59;16.60;;;11.55;;
27580;SDS011;63557;52.302;7.964;2023-04-15T10:05:00;15.70;;;10.98;;
27580;SDS011;63557;52.302;7.964;2023-04-15T10:10:00;19.95;;;11.02;;
27580;SDS011;63557;52.302;7.964;2023-04-15T10:15:03;17.40;;;10.35;;
27580;SDS011;63557;52.302;7.964;2023-04-15T10:20:04;13.85;;;10.48;;
27580;SDS011;63557;52.302;7.964;2023-04-15T10:25:06;16.85;;;10.65;;
27580;SDS011;63557;52.302;7.964;2023-04-15T10:30:08;13.82;;;9.65;;
27580;SDS011;63557;52.302;7.964;2023-04-15T10:35:08;12.65;;;9.13;;
27580;SDS011;63557;52.302;7.964;2023-04-15T10:45:34;12.85;;;8.65;;
27580;SDS011;63557;52.302;7.964;2023-04-15T10:50:35;13.68;;;9.45;;
27580;SDS011;63557;52.302;7.964;2023-04-15T10:55:36;10.88;;;8.45;;
27580;SDS011;63557;52.302;7.964;2023-04-15T11:00:37;10.73;;;8.02;;
27580;SDS011;63557;52.302;7.964;2023-04-15T11:15:42;14.40;;;8.00;;
27580;SDS011;63557;52.302;7.964;2023-04-15T11:20:56;10.07;;;7.82;;
27580;SDS011;63557;52.302;7.964;2023-04-15T11:25:57;9.23;;;6.65;;
27580;SDS011;63557;52.302;7.964;2023-04-15T11:30:57;7.13;;;6.35;;
27580;SDS011;63557;52.302;7.964;2023-04-15T11:35:58;7.55;;;6.47;;
27580;SDS011;63557;52.302;7.964;2023-04-15T11:40:58;7.77;;;5.90;;
27580;SDS011;63557;52.302;7.964;2023-04-15T11:45:59;9.93;;;6.50;;
27580;SDS011;63557;52.302;7.964;2023-04-15T11:51:06;7.43;;;5.80;;
27580;SDS011;63557;52.302;7.964;2023-04-15T11:56:25;9.43;;;6.38;;
27580;SDS011;63557;52.302;7.964;2023-04-15T12:01:35;8.02;;;5.85;;
27580;SDS011;63557;52.302;7.964;2023-04-15T12:06:38;9.32;;;6.75;;
27580;SDS011;63557;52.302;7.964;2023-04-15T12:11:39;7.30;;;6.20;;
27580;SDS011;63557;52.302;7.964;2023-04-15T12:16:41;8.43;;;5.82;;
27580;SDS011;63557;52.302;7.964;2023-04-15T12:21:46;7.35;;;6.22;;
27580;SDS011;63557;52.302;7.964;2023-04-15T12:26:50;7.27;;;6.23;;
27580;SDS011;63557;52.302;7.964;2023-04-15T12:31:53;8.63;;;5.70;;
27580;SDS011;63557;52.302;7.964;2023-04-15T12:36:54;6.50;;;5.70;;
27580;SDS011;63557;52.302;7.964;2023-04-15T12:41:54;6.85;;;5.88;;
27580;SDS011;63557;52.302;7.964;2023-04-15T12:46:55;9.93;;;8.33;;
27580;SDS011;63557;52.302;7.964;2023-04-15T12:51:56;9.35;;;7.60;;
27580;SDS011;63557;52.302;7.964;2023-04-15T12:56:57;8.27;;;7.40;;
27580;SDS011;63557;52.302;7.964;2023-04-15T13:01:57;9.98;;;6.45;;
27580;SDS011;63557;52.302;7.964;2023-04-15T13:07:00;7.60;;;6.80;;
27580;SDS011;63557;52.302;7.964;2023-04-15T13:12:00;7.22;;;6.03;;
27580;SDS011;63557;52.302;7.964;2023-04-15T13:17:00;8.57;;;6.47;;
27580;SDS011;63557;52.302;7.964;2023-04-15T13:22:03;10.07;;;5.88;;
27580;SDS011;63557;52.302;7.964;2023-04-15T13:27:04;9.88;;;6.72;;
27580;SDS011;63557;52.302;7.964;2023-04-15T13:32:04;10.05;;;8.10;;
27580;SDS011;63557;52.302;7.964;2023-04-15T13:37:06;9.00;;;7.38;;
27580;SDS011;63557;52.302;7.964;2023-04-15T13:42:06;13.25;;;7.38;;
27580;SDS011;63557;52.302;7.964;2023-04-15T13:47:07;9.27;;;7.30;;
27580;SDS011;63557;52.302;7.964;2023-04-15T13:52:07;9.00;;;6.75;;
27580;SDS011;63557;52.302;7.964;2023-04-15T13:57:08;8.70;;;6.97;;
27580;SDS011;63557;52.302;7.964;2023-04-15T14:02:08;10.60;;;7.13;;
27580;SDS011;63557;52.302;7.964;2023-04-15T14:07:08;7.95;;;6.35;;
27580;SDS011;63557;52.302;7.964;2023-04-15T14:12:09;13.03;;;10.63;;
27580;SDS011;63557;52.302;7.964;2023-04-15T14:17:10;14.10;;;10.65;;
27580;SDS011;63557;52.302;7.964;2023-04-15T14:22:10;13.85;;;8.45;;
27580;SDS011;63557;52.302;7.964;2023-04-15T14:27:11;16.20;;;12.15;;
27580;SDS011;63557;52.302;7.964;2023-04-15T14:32:11;16.50;;;9.32;;
27580;SDS011;63557;52.302;7.964;2023-04-15T14:37:12;12.40;;;9.38;;
27580;SDS011;63557;52.302;7.964;2023-04-15T14:42:12;15.03;;;9.93;;
27580;SDS011;63557;52.302;7.964;2023-04-15T14:47:12;15.00;;;9.87;;
27580;SDS011;63557;52.302;7.964;2023-04-15T14:52:13;17.05;;;10.95;;
27580;SDS011;63557;52.302;7.964;2023-04-15T14:57:13;15.67;;;10.70;;
27580;SDS011;63557;52.302;7.964;2023-04-15T15:02:13;15.80;;;12.70;;
27580;SDS011;63557;52.302;7.964;2023-04-15T15:07:14;14.45;;;11.35;;
27580;SDS011;63557;52.302;7.964;2023-04-15T15:12:15;19.52;;;12.55;;
27580;SDS011;63557;52.302;7.964;2023-04-15T15:17:15;21.23;;;13.15;;
27580;SDS011;63557;52.302;7.964;2023-04-15T15:22:16;21.58;;;13.18;;
27580;SDS011;63557;52.302;7.964;2023-04-15T15:27:16;19.77;;;13.15;;
27580;SDS011;63557;52.302;7.964;2023-04-15T15:32:16;16.80;;;11.88;;
27580;SDS011;63557;52.302;7.964;2023-04-15T15:37:17;19.70;;;12.63;;
27580;SDS011;63557;52.302;7.964;2023-04-15T15:42:17;20.25;;;14.07;;
27580;SDS011;63557;52.302;7.964;2023-04-15T15:47:18;22.63;;;14.95;;
27580;SDS011;63557;52.302;7.964;2023-04-15T15:52:18;21.50;;;13.05;;
27580;SDS011;63557;52.302;7.964;2023-04-15T15:57:19;36.45;;;28.65;;
27580;SDS011;63557;52.302;7.964;2023-04-15T16:02:19;25.98;;;18.38;;
27580;SDS011;63557;52.302;7.964;2023-04-15T16:07:20;31.40;;;17.75;;
27580;SDS011;63557;52.302;7.964;2023-04-15T16:12:21;27.13;;;15.50;;
27580;SDS011;63557;52.302;7.964;2023-04-15T16:17:21;29.70;;;15.40;;
27580;SDS011;63557;52.302;7.964;2023-04-15T16:22:21;27.23;;;15.80;;
27580;SDS011;63557;52.302;7.964;2023-04-15T16:27:22;34.77;;;17.90;;
27580;SDS011;63557;52.302;7.964;2023-04-15T16:32:22;29.58;;;16.70;;
27580;SDS011;63557;52.302;7.964;2023-04-15T16:37:23;37.92;;;17.15;;
27580;SDS011;63557;52.302;7.964;2023-04-15T16:42:23;37.63;;;21.37;;
27580;SDS011;63557;52.302;7.964;2023-04-15T16:47:23;40.38;;;19.95;;
27580;SDS011;63557;52.302;7.964;2023-04-15T16:52:24;43.03;;;19.93;;
27580;SDS011;63557;52.302;7.964;2023-04-15T16:57:24;37.95;;;18.75;;
27580;SDS011;63557;52.302;7.964;2023-04-15T17:02:25;43.17;;;20.00;;
27580;SDS011;63557;52.302;7.964;2023-04-15T17:07:25;47.28;;;21.27;;
27580;SDS011;63557;52.302;7.964;2023-04-15T17:12:25;47.78;;;24.27;;
27580;SDS011;63557;52.302;7.964;2023-04-15T17:17:26;51.15;;;24.77;;
27580;SDS011;63557;52.302;7.964;2023-04-15T17:22:26;60.73;;;31.00;;
27580;SDS011;63557;52.302;7.964;2023-04-15T17:27:27;59.00;;;24.53;;
27580;SDS011;63557;52.302;7.964;2023-04-15T17:32:28;50.28;;;23.20;;
27580;SDS011;63557;52.302;7.964;2023-04-15T17:37:31;53.15;;;28.17;;
27580;SDS011;63557;52.302;7.964;2023-04-15T17:42:31;61.20;;;31.73;;
27580;SDS011;63557;52.302;7.964;2023-04-15T17:47:32;79.73;;;39.97;;
27580;SDS011;63557;52.302;7.964;2023-04-15T17:52:32;57.30;;;26.88;;
27580;SDS011;63557;52.302;7.964;2023-04-15T17:57:32;54.57;;;30.33;;
27580;SDS011;63557;52.302;7.964;2023-04-15T18:02:33;63.05;;;28.95;;
27580;SDS011;63557;52.302;7.964;2023-04-15T18:07:33;71.80;;;37.20;;
27580;SDS011;63557;52.302;7.964;2023-04-15T18:12:34;70.20;;;32.17;;
27580;SDS011;63557;52.302;7.964;2023-04-15T18:17:34;59.85;;;31.90;;
27580;SDS011;63557;52.302;7.964;2023-04-15T18:22:35;68.35;;;31.95;;
27580;SDS011;63557;52.302;7.964;2023-04-15T18:27:35;67.37;;;33.10;;
27580;SDS011;63557;52.302;7.964;2023-04-15T18:32:38;77.13;;;34.15;;
27580;SDS011;63557;52.302;7.964;2023-04-15T18:37:38;75.82;;;35.05;;
27580;SDS011;63557;52.302;7.964;2023-04-15T18:42:39;79.75;;;40.63;;
27580;SDS011;63557;52.302;7.964;2023-04-15T18:47:39;85.82;;;39.78;;
27580;SDS011;63557;52.302;7.964;2023-04-15T18:52:40;81.63;;;34.47;;
27580;SDS011;63557;52.302;7.964;2023-04-15T18:57:41;86.17;;;38.07;;
27580;SDS011;63557;52.302;7.964;2023-04-15T19:02:43;88.55;;;35.80;;
27580;SDS011;63557;52.302;7.964;2023-04-15T19:07:44;96.13;;;42.92;;
27580;SDS011;63557;52.302;7.964;2023-04-15T19:12:44;100.95;;;40.97;;
27580;SDS011;63557;52.302;7.964;2023-04-15T19:17:45;92.70;;;39.87;;
27580;SDS011;63557;52.302;7.964;2023-04-15T19:22:45;95.07;;;41.13;;
27580;SDS011;63557;52.302;7.964;2023-04-15T19:27:46;107.57;;;43.65;;
27580;SDS011;63557;52.302;7.964;2023-04-15T19:32:46;109.10;;;46.27;;
27580;SDS011;63557;52.302;7.964;2023-04-15T19:37:46;114.67;;;44.90;;
27580;SDS011;63557;52.302;7.964;2023-04-15T19:42:47;112.20;;;47.27;;
27580;SDS011;63557;52.302;7.964;2023-04-15T19:47:47;118.87;;;47.33;;
27580;SDS011;63557;52.302;7.964;2023-04-15T19:52:47;120.17;;;45.17;;
27580;SDS011;63557;52.302;7.964;2023-04-15T19:57:47;125.87;;;48.87;;
27580;SDS011;63557;52.302;7.964;2023-04-15T20:02:48;109.70;;;45.67;;
27580;SDS011;63557;52.302;7.964;2023-04-15T20:07:48;122.70;;;50.58;;
27580;SDS011;63557;52.302;7.964;2023-04-15T20:12:51;122.32;;;50.90;;
27580;SDS011;63557;52.302;7.964;2023-04-15T20:17:52;133.67;;;52.07;;
27580;SDS011;63557;52.302;7.964;2023-04-15T20:22:52;131.37;;;53.83;;
27580;SDS011;63557;52.302;7.964;2023-04-15T20:27:52;130.63;;;51.33;;
27580;SDS011;63557;52.302;7.964;2023-04-15T20:32:53;130.80;;;52.13;;
27580;SDS011;63557;52.302;7.964;2023-04-15T20:37:53;135.77;;;53.63;;
27580;SDS011;63557;52.302;7.964;2023-04-15T20:42:54;139.45;;;53.85;;
27580;SDS011;63557;52.302;7.964;2023-04-15T20:47:55;134.77;;;54.00;;
27580;SDS011;63557;52.302;7.964;2023-04-15T20:52:55;151.65;;;55.22;;
27580;SDS011;63557;52.302;7.964;2023-04-15T20:57:55;134.40;;;53.95;;
27580;SDS011;63557;52.302;7.964;2023-04-15T21:02:57;137.35;;;55.28;;
27580;SDS011;63557;52.302;7.964;2023-04-15T21:07:57;135.70;;;56.10;;
27580;SDS011;63557;52.302;7.964;2023-04-15T21:12:58;137.73;;;55.97;;
27580;SDS011;63557;52.302;7.964;2023-04-15T21:17:58;141.87;;;55.87;;
27580;SDS011;63557;52.302;7.964;2023-04-15T21:22:58;147.43;;;56.90;;
27580;SDS011;63557;52.302;7.964;2023-04-15T21:27:59;134.00;;;57.67;;
27580;SDS011;63557;52.302;7.964;2023-04-15T21:32:59;136.63;;;56.95;;
27580;SDS011;63557;52.302;7.964;2023-04-15T21:37:59;141.30;;;57.23;;
27580;SDS011;63557;52.302;7.964;2023-04-15T21:43:00;139.00;;;58.10;;
27580;SDS011;63557;52.302;7.964;2023-04-15T21:48:03;134.57;;;56.72;;
27580;SDS011;63557;52.302;7.964;2023-04-15T21:53:05;127.82;;;57.38;;
27580;SDS011;63557;52.302;7.964;2023-04-15T21:58:06;123.13;;;56.40;;
27580;SDS011;63557;52.302;7.964;2023-04-15T22:03:06;128.97;;;56.60;;
27580;SDS011;63557;52.302;7.964;2023-04-15T22:08:06;139.57;;;58.15;;
27580;SDS011;63557;52.302;7.964;2023-04-15T22:13:07;140.75;;;57.13;;
27580;SDS011;63557;52.302;7.964;2023-04-15T22:18:10;124.32;;;56.17;;
27580;SDS011;63557;52.302;7.964;2023-04-15T22:23:11;136.50;;;59.50;;
27580;SDS011;63557;52.302;7.964;2023-04-15T22:28:11;128.90;;;56.35;;
27580;SDS011;63557;52.302;7.964;2023-04-15T22:33:12;134.30;;;56.13;;
27580;SDS011;63557;52.302;7.964;2023-04-15T22:38:12;123.50;;;56.73;;
27580;SDS011;63557;52.302;7.964;2023-04-15T22:43:12;130.67;;;58.70;;
27580;SDS011;63557;52.302;7.964;2023-04-15T22:48:13;119.43;;;59.40;;
27580;SDS011;63557;52.302;7.964;2023-04-15T22:53:14;132.40;;;58.37;;
27580;SDS011;63557;52.302;7.964;2023-04-15T22:58:14;123.75;;;58.97;;
27580;SDS011;63557;52.302;7.964;2023-04-15T23:03:16;117.85;;;58.15;;
27580;SDS011;63557;52.302;7.964;2023-04-15T23:08:16;123.07;;;58.50;;
27580;SDS011;63557;52.302;7.964;2023-04-15T23:13:16;122.97;;;59.50;;
27580;SDS011;63557;52.302;7.964;2023-04-15T23:18:17;115.82;;;55.47;;
27580;SDS011;63557;52.302;7.964;2023-04-15T23:23:17;117.03;;;56.53;;
27580;SDS011;63557;52.302;7.964;2023-04-15T23:28:17;124.40;;;57.17;;
27580;SDS011;63557;52.302;7.964;2023-04-15T23:33:18;118.45;;;57.47;;
27580;SDS011;63557;52.302;7.964;2023-04-15T23:38:18;111.17;;;57.63;;
27580;SDS011;63557;52.302;7.964;2023-04-15T23:43:18;117.00;;;58.60;;
27580;SDS011;63557;52.302;7.964;2023-04-15T23:48:19;110.63;;;56.55;;
27580;SDS011;63557;52.302;7.964;2023-04-15T23:53:22;123.20;;;56.42;;
27580;SDS011;63557;52.302;7.964;2023-04-15T23:58:23;119.38;;;57.13;;
